| time (UTC) | temp F | wind direction | speed MPH | gust MPH | rain 1hr in | rain 24hr in | rain mn in | humidity % | barometer mb |
| 20260507153636 | 58 | 0 | 0.0 | 3.0 | 0.00 | 0.00 | 0.00 | 37 | 1014.5 |
| 20260507153137 | 58 | 231 | 1.0 | 3.0 | 0.00 | 0.00 | 0.00 | 38 | 1014.7 |
| 20260507152636 | 57 | 204 | 3.0 | 3.0 | 0.00 | 0.00 | 0.00 | 39 | 1014.8 |
| 20260507152137 | 56 | 217 | 6.0 | 3.0 | 0.00 | 0.00 | 0.00 | 39 | 1014.8 |
| 20260507151636 | 56 | 231 | 1.0 | 3.0 | 0.00 | 0.00 | 0.00 | 39 | 1014.9 |
| 20260507151136 | 55 | 304 | 4.0 | 4.0 | 0.00 | 0.00 | 0.00 | 39 | 1014.9 |
| 20260507150636 | 55 | 261 | 3.0 | 4.0 | 0.00 | 0.00 | 0.00 | 39 | 1014.9 |
| 20260507150137 | 55 | 220 | 4.0 | 4.0 | 0.00 | 0.00 | 0.00 | 39 | 1014.9 |
| 20260507145636 | 55 | 255 | 2.0 | 3.0 | 0.00 | 0.00 | 0.00 | 40 | 1014.9 |
| 20260507145137 | 55 | 233 | 5.0 | 2.0 | 0.00 | 0.00 | 0.00 | 41 | 1014.9 |
| 20260507144636 | 54 | 207 | 6.0 | 2.0 | 0.00 | 0.00 | 0.00 | 42 | 1015.0 |
| 20260507144136 | 53 | 240 | 2.0 | 3.0 | 0.00 | 0.00 | 0.00 | 43 | 1015.1 |
| 20260507143636 | 53 | 268 | 1.0 | 3.0 | 0.00 | 0.00 | 0.00 | 44 | 1015.2 |
| 20260507143137 | 53 | 248 | 1.0 | 3.0 | 0.00 | 0.00 | 0.00 | 44 | 1015.2 |
| 20260507142636 | 52 | 211 | 3.0 | 2.0 | 0.00 | 0.00 | 0.00 | 44 | 1015.1 |
| 20260507142136 | 51 | 256 | 1.0 | 2.0 | 0.00 | 0.00 | 0.00 | 46 | 1015.2 |
| 20260507141636 | 51 | 239 | 2.0 | 2.0 | 0.00 | 0.00 | 0.00 | 47 | 1015.2 |
| 20260507141136 | 50 | 240 | 2.0 | 2.0 | 0.00 | 0.00 | 0.00 | 47 | 1015.3 |
| 20260507140637 | 50 | 252 | 2.0 | 2.0 | 0.00 | 0.00 | 0.00 | 47 | 1015.4 |
| 20260507140137 | 50 | 287 | 2.0 | 2.0 | 0.00 | 0.00 | 0.00 | 47 | 1015.5 |
| 20260507135636 | 49 | 245 | 1.0 | 3.0 | 0.00 | 0.00 | 0.00 | 47 | 1015.6 |
| 20260507135137 | 49 | 311 | 5.0 | 2.0 | 0.00 | 0.00 | 0.00 | 48 | 1015.6 |
| 20260507134636 | 49 | 0 | 0.0 | 2.0 | 0.00 | 0.00 | 0.00 | 49 | 1015.7 |
| 20260507134137 | 49 | 263 | 4.0 | 2.0 | 0.00 | 0.00 | 0.00 | 49 | 1015.6 |
| 20260507133636 | 48 | 271 | 2.0 | 2.0 | 0.00 | 0.00 | 0.00 | 50 | 1015.6 |
| 20260507133136 | 48 | 268 | 1.0 | 2.0 | 0.00 | 0.00 | 0.00 | 50 | 1015.6 |
| 20260507132636 | 48 | 241 | 1.0 | 2.0 | 0.00 | 0.00 | 0.00 | 50 | 1015.6 |
| 20260507132136 | 47 | 153 | 1.0 | 2.0 | 0.00 | 0.00 | 0.00 | 51 | 1015.4 |
| 20260507131636 | 47 | 273 | 2.0 | 2.0 | 0.00 | 0.00 | 0.00 | 51 | 1015.4 |
| 20260507131137 | 47 | 230 | 2.0 | 2.0 | 0.00 | 0.00 | 0.00 | 52 | 1015.5 |
| 20260507130636 | 46 | 243 | 4.0 | 2.0 | 0.00 | 0.00 | 0.00 | 53 | 1015.5 |
| 20260507130137 | 46 | 264 | 1.0 | 2.0 | 0.00 | 0.00 | 0.00 | 53 | 1015.4 |
| 20260507125636 | 46 | 248 | 2.0 | 2.0 | 0.00 | 0.00 | 0.00 | 55 | 1015.5 |
| 20260507125137 | 45 | 302 | 4.0 | 2.0 | 0.00 | 0.00 | 0.00 | 57 | 1015.5 |
| 20260507124636 | 45 | 265 | 2.0 | 2.0 | 0.00 | 0.00 | 0.00 | 58 | 1015.5 |
| 20260507124136 | 44 | 237 | 1.0 | 2.0 | 0.00 | 0.00 | 0.00 | 60 | 1015.5 |
| 20260507123636 | 43 | 212 | 3.0 | 2.0 | 0.00 | 0.00 | 0.00 | 61 | 1015.5 |
| 20260507123137 | 43 | 0 | 0.0 | 2.0 | 0.00 | 0.00 | 0.00 | 62 | 1015.5 |
| 20260507122636 | 43 | 267 | 1.0 | 2.0 | 0.00 | 0.00 | 0.00 | 63 | 1015.4 |
| 20260507122136 | 42 | 245 | 2.0 | 1.0 | 0.00 | 0.00 | 0.00 | 64 | 1015.2 |
| 20260507121636 | 42 | 0 | 0.0 | 1.0 | 0.00 | 0.00 | 0.00 | 66 | 1015.3 |
| 20260507121136 | 41 | 0 | 0.0 | 1.0 | 0.00 | 0.00 | 0.00 | 66 | 1015.3 |
| 20260507120636 | 41 | 262 | 2.0 | 1.0 | 0.00 | 0.00 | 0.00 | 67 | 1015.3 |
| 20260507120136 | 41 | 234 | 2.0 | 1.0 | 0.00 | 0.00 | 0.00 | 68 | 1015.4 |
| 20260507115636 | 40 | 0 | 0.0 | 1.0 | 0.00 | 0.00 | 0.00 | 68 | 1015.2 |
| 20260507115136 | 40 | 0 | 0.0 | 1.0 | 0.00 | 0.00 | 0.00 | 69 | 1015.2 |
| 20260507114636 | 40 | 234 | 2.0 | 0.0 | 0.00 | 0.00 | 0.00 | 69 | 1015.2 |
| 20260507114136 | 39 | 0 | 0.0 | 0.0 | 0.00 | 0.00 | 0.00 | 69 | 1015.2 |
| 20260507113636 | 39 | 0 | 0.0 | 0.0 | 0.00 | 0.00 | 0.00 | 69 | 1015.3 |
| 20260507113136 | 39 | 0 | 0.0 | 0.0 | 0.00 | 0.00 | 0.00 | 69 | 1015.2 |
| 20260507112637 | 38 | 0 | 0.0 | 0.0 | 0.00 | 0.00 | 0.00 | 69 | 1015.2 |
| 20260507112136 | 38 | 0 | 0.0 | 1.0 | 0.00 | 0.00 | 0.00 | 69 | 1015.1 |
| 20260507111636 | 38 | 0 | 0.0 | 1.0 | 0.00 | 0.00 | 0.00 | 69 | 1015.0 |
| 20260507111137 | 38 | 234 | 2.0 | 1.0 | 0.00 | 0.00 | 0.00 | 68 | 1015.1 |
| 20260507110636 | 38 | 0 | 0.0 | 1.0 | 0.00 | 0.00 | 0.00 | 68 | 1015.0 |
| 20260507110137 | 38 | 226 | 1.0 | 0.0 | 0.00 | 0.00 | 0.00 | 68 | 1015.0 |
| 20260507105636 | 38 | 0 | 0.0 | 1.0 | 0.00 | 0.00 | 0.00 | 68 | 1015.0 |
| 20260507105136 | 38 | 246 | 1.0 | 1.0 | 0.00 | 0.00 | 0.00 | 68 | 1015.0 |
| 20260507104637 | 38 | 246 | 1.0 | 1.0 | 0.00 | 0.00 | 0.00 | 67 | 1014.9 |
| 20260507104137 | 38 | 261 | 2.0 | 0.0 | 0.00 | 0.00 | 0.00 | 67 | 1015.0 |
| 20260507103637 | 38 | 0 | 0.0 | 0.0 | 0.00 | 0.00 | 0.00 | 67 | 1014.9 |
| 20260507103137 | 38 | 0 | 0.0 | 0.0 | 0.00 | 0.00 | 0.00 | 66 | 1014.9 |
| 20260507102637 | 38 | 0 | 0.0 | 0.0 | 0.00 | 0.00 | 0.00 | 66 | 1014.9 |
| 20260507102137 | 38 | 0 | 0.0 | 0.0 | 0.00 | 0.00 | 0.00 | 66 | 1014.9 |
| 20260507101637 | 38 | 0 | 0.0 | 0.0 | 0.00 | 0.00 | 0.00 | 66 | 1014.9 |
| 20260507101137 | 38 | 261 | 1.0 | 0.0 | 0.00 | 0.00 | 0.00 | 66 | 1015.0 |
| 20260507100637 | 38 | 261 | 1.0 | 0.0 | 0.00 | 0.00 | 0.00 | 65 | 1014.9 |
| 20260507100137 | 38 | 0 | 0.0 | 0.0 | 0.00 | 0.00 | 0.00 | 65 | 1015.0 |
| 20260507095637 | 38 | 261 | 1.0 | 0.0 | 0.00 | 0.00 | 0.00 | 65 | 1015.1 |
| 20260507095137 | 38 | 0 | 0.0 | 0.0 | 0.00 | 0.00 | 0.00 | 65 | 1015.1 |
| 20260507094638 | 38 | 0 | 0.0 | 0.0 | 0.00 | 0.00 | 0.00 | 64 | 1015.1 |
| 20260507094138 | 38 | 261 | 1.0 | 0.0 | 0.00 | 0.00 | 0.00 | 64 | 1015.0 |
| 20260507093637 | 39 | 0 | 0.0 | 1.0 | 0.00 | 0.00 | 0.00 | 64 | 1015.0 |
| 20260507093137 | 39 | 0 | 0.0 | 1.0 | 0.00 | 0.00 | 0.00 | 64 | 1015.0 |
| 20260507092637 | 39 | 261 | 1.0 | 0.0 | 0.00 | 0.00 | 0.00 | 63 | 1015.0 |
| 20260507092137 | 39 | 0 | 0.0 | 0.0 | 0.00 | 0.00 | 0.00 | 63 | 1015.0 |
| 20260507091637 | 39 | 0 | 0.0 | 0.0 | 0.00 | 0.00 | 0.00 | 62 | 1014.9 |
| 20260507091137 | 39 | 261 | 1.0 | 0.0 | 0.00 | 0.00 | 0.00 | 62 | 1015.0 |
| 20260507090636 | 40 | 0 | 0.0 | 0.0 | 0.00 | 0.00 | 0.00 | 62 | 1015.1 |
| 20260507090137 | 40 | 0 | 0.0 | 1.0 | 0.00 | 0.00 | 0.00 | 62 | 1015.1 |
| 20260507085637 | 40 | 0 | 0.0 | 1.0 | 0.00 | 0.00 | 0.00 | 61 | 1015.1 |
| 20260507085137 | 40 | 264 | 1.0 | 1.0 | 0.00 | 0.00 | 0.00 | 61 | 1015.1 |
| 20260507084636 | 40 | 0 | 0.0 | 0.0 | 0.00 | 0.00 | 0.00 | 60 | 1015.1 |
| 20260507084137 | 41 | 288 | 1.0 | 0.0 | 0.00 | 0.00 | 0.00 | 60 | 1015.1 |
| 20260507083636 | 41 | 0 | 0.0 | 0.0 | 0.00 | 0.00 | 0.00 | 59 | 1015.0 |
| 20260507083137 | 41 | 0 | 0.0 | 0.0 | 0.00 | 0.00 | 0.00 | 59 | 1014.9 |
| 20260507082637 | 41 | 0 | 0.0 | 0.0 | 0.00 | 0.00 | 0.00 | 59 | 1015.0 |
| 20260507082137 | 41 | 290 | 2.0 | 0.0 | 0.00 | 0.00 | 0.00 | 59 | 1015.0 |
| 20260507081637 | 41 | 0 | 0.0 | 1.0 | 0.00 | 0.00 | 0.00 | 59 | 1015.1 |
| 20260507081137 | 41 | 298 | 1.0 | 1.0 | 0.00 | 0.00 | 0.00 | 59 | 1014.9 |
| 20260507080637 | 41 | 0 | 0.0 | 1.0 | 0.00 | 0.00 | 0.00 | 59 | 1015.0 |
| 20260507080137 | 42 | 296 | 2.0 | 1.0 | 0.00 | 0.00 | 0.00 | 59 | 1014.9 |
| 20260507075637 | 42 | 298 | 1.0 | 1.0 | 0.00 | 0.00 | 0.00 | 58 | 1015.0 |
| 20260507075137 | 42 | 312 | 1.0 | 0.0 | 0.00 | 0.00 | 0.00 | 58 | 1015.0 |
| 20260507074638 | 42 | 0 | 0.0 | 0.0 | 0.00 | 0.00 | 0.00 | 58 | 1015.1 |
| 20260507074137 | 42 | 0 | 0.0 | 0.0 | 0.00 | 0.00 | 0.00 | 57 | 1015.1 |
| 20260507073637 | 42 | 0 | 0.0 | 1.0 | 0.00 | 0.00 | 0.00 | 57 | 1015.1 |
| 20260507073137 | 42 | 0 | 0.0 | 1.0 | 0.00 | 0.00 | 0.00 | 57 | 1015.0 |
| 20260507072636 | 42 | 0 | 0.0 | 1.0 | 0.00 | 0.00 | 0.00 | 57 | 1015.0 |
| 20260507072138 | 42 | 278 | 1.0 | 1.0 | 0.00 | 0.00 | 0.00 | 57 | 1015.1 |
| 20260507071636 | 42 | 0 | 0.0 | 1.0 | 0.00 | 0.00 | 0.00 | 57 | 1015.1 |
| 20260507071137 | 42 | 298 | 1.0 | 1.0 | 0.00 | 0.00 | 0.00 | 57 | 1015.2 |
| 20260507070637 | 42 | 0 | 0.0 | 1.0 | 0.00 | 0.00 | 0.00 | 57 | 1015.3 |
| 20260507070137 | 42 | 318 | 1.0 | 0.0 | 0.00 | 0.00 | 0.00 | 57 | 1015.2 |
| 20260507065637 | 42 | 280 | 1.0 | 0.0 | 0.00 | 0.00 | 0.00 | 56 | 1015.3 |
| 20260507065137 | 43 | 0 | 0.0 | 1.0 | 0.00 | 0.00 | 0.00 | 57 | 1015.2 |
| 20260507064637 | 43 | 0 | 0.0 | 1.0 | 0.00 | 0.00 | 0.00 | 56 | 1015.2 |
| 20260507064137 | 43 | 281 | 1.0 | 0.0 | 0.00 | 0.00 | 0.00 | 56 | 1015.3 |
| 20260507063636 | 43 | 0 | 0.0 | 1.0 | 0.00 | 0.00 | 0.00 | 56 | 1015.3 |
| 20260507063137 | 43 | 276 | 1.0 | 1.0 | 0.00 | 0.00 | 0.00 | 55 | 1015.3 |
| 20260507062637 | 43 | 276 | 1.0 | 0.0 | 0.00 | 0.00 | 0.00 | 55 | 1015.3 |
| 20260507062137 | 43 | 0 | 0.0 | 0.0 | 0.00 | 0.00 | 0.00 | 55 | 1015.4 |
| 20260507061637 | 43 | 0 | 0.0 | 0.0 | 0.00 | 0.00 | 0.00 | 54 | 1015.4 |
| 20260507061137 | 44 | 0 | 0.0 | 1.0 | 0.00 | 0.00 | 0.00 | 54 | 1015.5 |
| 20260507060636 | 44 | 0 | 0.0 | 1.0 | 0.00 | 0.00 | 0.00 | 54 | 1015.5 |
| 20260507060137 | 44 | 289 | 2.0 | 1.0 | 0.00 | 0.00 | 0.00 | 54 | 1015.4 |
| 20260507055636 | 44 | 0 | 0.0 | 0.0 | 0.00 | 0.00 | 0.00 | 54 | 1015.4 |
| 20260507055137 | 44 | 0 | 0.0 | 1.0 | 0.00 | 0.00 | 0.00 | 53 | 1015.4 |
| 20260507054636 | 44 | 289 | 1.0 | 1.0 | 0.00 | 0.00 | 0.00 | 53 | 1015.3 |
| 20260507054137 | 44 | 289 | 3.0 | 1.0 | 0.00 | 0.00 | 0.00 | 53 | 1015.4 |
| 20260507053637 | 44 | 289 | 2.0 | 1.0 | 0.00 | 0.00 | 0.00 | 52 | 1015.4 |
| 20260507053137 | 44 | 280 | 1.0 | 1.0 | 0.00 | 0.00 | 0.00 | 52 | 1015.5 |
| 20260507052636 | 45 | 276 | 2.0 | 1.0 | 0.00 | 0.00 | 0.00 | 52 | 1015.5 |
| 20260507052138 | 45 | 295 | 1.0 | 1.0 | 0.00 | 0.00 | 0.00 | 52 | 1015.4 |
| 20260507051637 | 45 | 295 | 1.0 | 1.0 | 0.00 | 0.00 | 0.00 | 52 | 1015.5 |
| 20260507051137 | 45 | 311 | 2.0 | 2.0 | 0.00 | 0.00 | 0.00 | 52 | 1015.5 |
| 20260507050637 | 45 | 316 | 3.0 | 2.0 | 0.00 | 0.00 | 0.00 | 51 | 1015.5 |
| 20260507050137 | 45 | 268 | 3.0 | 2.0 | 0.00 | 0.00 | 0.00 | 51 | 1015.5 |
| 20260507045636 | 45 | 304 | 1.0 | 2.0 | 0.00 | 0.00 | 0.00 | 51 | 1015.4 |
| 20260507045137 | 45 | 279 | 1.0 | 2.0 | 0.00 | 0.00 | 0.00 | 50 | 1015.5 |
| 20260507044636 | 45 | 273 | 2.0 | 2.0 | 0.00 | 0.00 | 0.00 | 50 | 1015.5 |
| 20260507044137 | 46 | 0 | 0.0 | 2.0 | 0.00 | 0.00 | 0.00 | 50 | 1015.5 |
| 20260507043636 | 46 | 292 | 2.0 | 2.0 | 0.00 | 0.00 | 0.00 | 50 | 1015.4 |
| 20260507043137 | 46 | 274 | 2.0 | 2.0 | 0.00 | 0.00 | 0.00 | 49 | 1015.5 |
| 20260507042636 | 46 | 270 | 2.0 | 2.0 | 0.00 | 0.00 | 0.00 | 50 | 1015.3 |
| 20260507042138 | 46 | 273 | 3.0 | 3.0 | 0.00 | 0.00 | 0.00 | 49 | 1015.4 |
| 20260507041636 | 46 | 281 | 3.0 | 3.0 | 0.00 | 0.00 | 0.00 | 49 | 1015.3 |
| 20260507041137 | 46 | 273 | 2.0 | 2.0 | 0.00 | 0.00 | 0.00 | 49 | 1015.4 |
| 20260507040636 | 46 | 292 | 2.0 | 3.0 | 0.00 | 0.00 | 0.00 | 48 | 1015.3 |
| 20260507040137 | 47 | 278 | 4.0 | 3.0 | 0.00 | 0.00 | 0.00 | 48 | 1015.3 |
| 20260507035637 | 47 | 330 | 2.0 | 3.0 | 0.00 | 0.00 | 0.00 | 48 | 1015.3 |
| 20260507035137 | 47 | 301 | 4.0 | 3.0 | 0.00 | 0.00 | 0.00 | 48 | 1015.4 |
| 20260507034636 | 47 | 283 | 5.0 | 3.0 | 0.00 | 0.00 | 0.00 | 48 | 1015.4 |
| 20260507034137 | 47 | 347 | 2.0 | 4.0 | 0.00 | 0.00 | 0.00 | 47 | 1015.4 |
| 20260507033636 | 47 | 281 | 1.0 | 4.0 | 0.00 | 0.00 | 0.00 | 47 | 1015.4 |
| 20260507033137 | 47 | 276 | 4.0 | 3.0 | 0.00 | 0.00 | 0.00 | 47 | 1015.4 |
| 20260507032636 | 47 | 318 | 2.0 | 3.0 | 0.00 | 0.00 | 0.00 | 47 | 1015.4 |
| 20260507032137 | 48 | 276 | 4.0 | 3.0 | 0.00 | 0.00 | 0.00 | 47 | 1015.4 |
| 20260507031638 | 48 | 283 | 2.0 | 3.0 | 0.00 | 0.00 | 0.00 | 46 | 1015.4 |
| 20260507031137 | 48 | 307 | 7.0 | 3.0 | 0.00 | 0.00 | 0.00 | 46 | 1015.4 |
| 20260507030638 | 48 | 310 | 2.0 | 4.0 | 0.00 | 0.00 | 0.00 | 46 | 1015.3 |
| 20260507030137 | 48 | 274 | 3.0 | 4.0 | 0.00 | 0.00 | 0.00 | 46 | 1015.3 |
| 20260507025636 | 48 | 268 | 3.0 | 4.0 | 0.00 | 0.00 | 0.00 | 46 | 1015.3 |
| 20260507025137 | 48 | 282 | 4.0 | 4.0 | 0.00 | 0.00 | 0.00 | 46 | 1015.3 |
| 20260507024636 | 48 | 259 | 2.0 | 4.0 | 0.00 | 0.00 | 0.00 | 45 | 1015.3 |
| 20260507024137 | 49 | 295 | 3.0 | 3.0 | 0.00 | 0.00 | 0.00 | 45 | 1015.2 |
| 20260507023636 | 49 | 274 | 3.0 | 3.0 | 0.00 | 0.00 | 0.00 | 45 | 1015.1 |
| 20260507023137 | 49 | 274 | 1.0 | 3.0 | 0.00 | 0.00 | 0.00 | 45 | 1015.0 |
| 20260507022636 | 49 | 321 | 2.0 | 4.0 | 0.00 | 0.00 | 0.00 | 44 | 1015.0 |
| 20260507022137 | 49 | 258 | 4.0 | 4.0 | 0.00 | 0.00 | 0.00 | 44 | 1014.9 |
| 20260507021636 | 49 | 262 | 3.0 | 5.0 | 0.00 | 0.00 | 0.00 | 44 | 1014.9 |
| 20260507021137 | 49 | 257 | 7.0 | 5.0 | 0.00 | 0.00 | 0.00 | 44 | 1014.8 |
| 20260507020636 | 49 | 324 | 3.0 | 4.0 | 0.00 | 0.00 | 0.00 | 43 | 1014.7 |
| 20260507020137 | 49 | 299 | 3.0 | 5.0 | 0.00 | 0.00 | 0.00 | 43 | 1014.6 |
| 20260507015636 | 50 | 302 | 4.0 | 4.0 | 0.00 | 0.00 | 0.00 | 43 | 1014.7 |
| 20260507015137 | 50 | 304 | 2.0 | 5.0 | 0.00 | 0.00 | 0.00 | 43 | 1014.7 |
| 20260507014636 | 50 | 271 | 4.0 | 4.0 | 0.00 | 0.00 | 0.00 | 43 | 1014.6 |
| 20260507014137 | 50 | 269 | 2.0 | 3.0 | 0.00 | 0.00 | 0.00 | 44 | 1014.6 |
| 20260507013636 | 50 | 292 | 1.0 | 4.0 | 0.00 | 0.00 | 0.00 | 43 | 1014.5 |
| 20260507013138 | 50 | 297 | 3.0 | 5.0 | 0.00 | 0.00 | 0.00 | 43 | 1014.5 |
| 20260507012636 | 51 | 274 | 6.0 | 5.0 | 0.00 | 0.00 | 0.00 | 43 | 1014.5 |
| 20260507012137 | 51 | 278 | 8.0 | 5.0 | 0.00 | 0.00 | 0.00 | 43 | 1014.4 |
| 20260507011636 | 51 | 289 | 4.0 | 4.0 | 0.00 | 0.00 | 0.00 | 43 | 1014.4 |
| 20260507011137 | 51 | 270 | 4.0 | 5.0 | 0.00 | 0.00 | 0.00 | 43 | 1014.3 |
| 20260507010636 | 51 | 269 | 3.0 | 5.0 | 0.00 | 0.00 | 0.00 | 43 | 1014.3 |
| 20260507010137 | 52 | 306 | 8.0 | 6.0 | 0.00 | 0.00 | 0.00 | 42 | 1014.2 |
| 20260507005636 | 52 | 286 | 4.0 | 5.0 | 0.00 | 0.00 | 0.00 | 42 | 1014.3 |
| 20260507005137 | 52 | 279 | 9.0 | 5.0 | 0.00 | 0.00 | 0.00 | 42 | 1014.2 |
| 20260507004636 | 53 | 335 | 4.0 | 5.0 | 0.00 | 0.00 | 0.00 | 42 | 1014.2 |
| 20260507004137 | 53 | 345 | 6.0 | 5.0 | 0.00 | 0.00 | 0.00 | 41 | 1014.0 |
| 20260507003636 | 53 | 258 | 7.0 | 3.0 | 0.00 | 0.00 | 0.00 | 41 | 1014.1 |
| 20260507003137 | 54 | 270 | 2.0 | 3.0 | 0.00 | 0.00 | 0.00 | 42 | 1014.0 |
| 20260507002636 | 54 | 240 | 1.0 | 4.0 | 0.00 | 0.00 | 0.00 | 41 | 1013.9 |
| 20260507002137 | 54 | 271 | 4.0 | 5.0 | 0.00 | 0.00 | 0.00 | 40 | 1013.8 |
| 20260507001636 | 54 | 349 | 4.0 | 5.0 | 0.00 | 0.00 | 0.00 | 40 | 1013.7 |
| 20260507001136 | 54 | 236 | 7.0 | 4.0 | 0.00 | 0.00 | 0.00 | 41 | 1013.7 |
| 20260507000636 | 54 | 271 | 3.0 | 5.0 | 0.00 | 0.00 | 0.00 | 41 | 1013.6 |
| 20260507000137 | 54 | 300 | 4.0 | 5.0 | 0.00 | 0.00 | 0.00 | 41 | 1013.5 |
| 20260506235636 | 54 | 325 | 7.0 | 5.0 | 0.00 | 0.00 | 0.00 | 40 | 1013.5 |
| 20260506235136 | 54 | 281 | 6.0 | 6.0 | 0.00 | 0.00 | 0.00 | 40 | 1013.4 |
| 20260506234638 | 54 | 290 | 5.0 | 6.0 | 0.00 | 0.00 | 0.00 | 40 | 1013.4 |
| 20260506234137 | 55 | 283 | 6.0 | 5.0 | 0.00 | 0.00 | 0.00 | 39 | 1013.4 |
| 20260506233636 | 55 | 323 | 4.0 | 5.0 | 0.00 | 0.00 | 0.00 | 39 | 1013.4 |
| 20260506233137 | 55 | 249 | 2.0 | 6.0 | 0.00 | 0.00 | 0.00 | 39 | 1013.3 |
| 20260506232636 | 55 | 271 | 3.0 | 7.0 | 0.00 | 0.00 | 0.00 | 39 | 1013.3 |
| 20260506232136 | 55 | 324 | 6.0 | 6.0 | 0.00 | 0.00 | 0.00 | 39 | 1013.4 |
| 20260506231636 | 56 | 302 | 8.0 | 4.0 | 0.00 | 0.00 | 0.00 | 38 | 1013.2 |
| 20260506231136 | 56 | 333 | 4.0 | 5.0 | 0.00 | 0.00 | 0.00 | 39 | 1013.3 |
| 20260506230637 | 56 | 307 | 6.0 | 4.0 | 0.00 | 0.00 | 0.00 | 39 | 1013.0 |
| 20260506230137 | 56 | 260 | 4.0 | 4.0 | 0.00 | 0.00 | 0.00 | 39 | 1013.0 |
| 20260506225636 | 56 | 267 | 3.0 | 5.0 | 0.00 | 0.00 | 0.00 | 40 | 1013.1 |
| 20260506225137 | 56 | 238 | 5.0 | 6.0 | 0.00 | 0.00 | 0.00 | 39 | 1013.1 |
| 20260506224637 | 56 | 319 | 9.0 | 5.0 | 0.00 | 0.00 | 0.00 | 39 | 1013.0 |
| 20260506224137 | 56 | 242 | 4.0 | 4.0 | 0.00 | 0.00 | 0.00 | 39 | 1013.1 |
| 20260506223636 | 56 | 220 | 6.0 | 4.0 | 0.00 | 0.00 | 0.00 | 39 | 1013.0 |
| 20260506223137 | 56 | 231 | 6.0 | 4.0 | 0.00 | 0.00 | 0.00 | 38 | 1013.0 |
| 20260506222636 | 57 | 250 | 4.0 | 5.0 | 0.00 | 0.00 | 0.00 | 39 | 1012.9 |
| 20260506222137 | 57 | 317 | 2.0 | 6.0 | 0.00 | 0.00 | 0.00 | 38 | 1012.9 |
| 20260506221636 | 57 | 288 | 1.0 | 6.0 | 0.00 | 0.00 | 0.00 | 38 | 1012.9 |
| 20260506221137 | 57 | 340 | 9.0 | 6.0 | 0.00 | 0.00 | 0.00 | 38 | 1012.8 |
| 20260506220636 | 57 | 283 | 16.0 | 5.0 | 0.00 | 0.00 | 0.00 | 37 | 1012.8 |
| 20260506220136 | 58 | 226 | 6.0 | 5.0 | 0.00 | 0.00 | 0.00 | 37 | 1012.7 |
| 20260506215636 | 58 | 226 | 5.0 | 5.0 | 0.00 | 0.00 | 0.00 | 37 | 1012.7 |
| 20260506215137 | 58 | 230 | 4.0 | 5.0 | 0.00 | 0.00 | 0.00 | 37 | 1012.7 |
| 20260506214637 | 59 | 236 | 5.0 | 4.0 | 0.00 | 0.00 | 0.00 | 36 | 1012.7 |
| 20260506214136 | 59 | 248 | 5.0 | 4.0 | 0.00 | 0.00 | 0.00 | 37 | 1012.7 |
| 20260506213636 | 59 | 243 | 2.0 | 5.0 | 0.00 | 0.00 | 0.00 | 36 | 1012.6 |
| 20260506213136 | 59 | 308 | 3.0 | 4.0 | 0.00 | 0.00 | 0.00 | 35 | 1012.7 |
| 20260506212636 | 59 | 307 | 5.0 | 4.0 | 0.00 | 0.00 | 0.00 | 36 | 1012.6 |
| 20260506212136 | 59 | 8 | 3.0 | 5.0 | 0.00 | 0.00 | 0.00 | 35 | 1012.6 |
| 20260506211636 | 60 | 233 | 6.0 | 5.0 | 0.00 | 0.00 | 0.00 | 33 | 1012.7 |
| 20260506211136 | 60 | 289 | 5.0 | 5.0 | 0.00 | 0.00 | 0.00 | 31 | 1012.7 |
| 20260506210637 | 60 | 239 | 6.0 | 5.0 | 0.00 | 0.00 | 0.00 | 32 | 1012.6 |
| 20260506210137 | 60 | 202 | 4.0 | 5.0 | 0.00 | 0.00 | 0.00 | 32 | 1012.6 |
| 20260506205636 | 60 | 297 | 4.0 | 5.0 | 0.00 | 0.00 | 0.00 | 33 | 1012.6 |
| 20260506205136 | 60 | 142 | 7.0 | 5.0 | 0.00 | 0.00 | 0.00 | 32 | 1012.7 |
| 20260506204636 | 61 | 273 | 6.0 | 4.0 | 0.00 | 0.00 | 0.00 | 32 | 1012.7 |
| 20260506204136 | 61 | 241 | 1.0 | 4.0 | 0.00 | 0.00 | 0.00 | 32 | 1012.6 |
| 20260506203636 | 60 | 221 | 7.0 | 3.0 | 0.00 | 0.00 | 0.00 | 33 | 1012.8 |
| 20260506203138 | 59 | 283 | 3.0 | 4.0 | 0.00 | 0.00 | 0.00 | 34 | 1012.7 |
| 20260506202636 | 59 | 276 | 3.0 | 5.0 | 0.00 | 0.00 | 0.00 | 33 | 1012.8 |
| 20260506202136 | 60 | 266 | 7.0 | 4.0 | 0.00 | 0.00 | 0.00 | 33 | 1012.8 |
| 20260506201636 | 60 | 248 | 5.0 | 4.0 | 0.00 | 0.00 | 0.00 | 34 | 1012.9 |
| 20260506201136 | 60 | 212 | 1.0 | 4.0 | 0.00 | 0.00 | 0.00 | 34 | 1013.0 |
| 20260506200636 | 61 | 295 | 5.0 | 3.0 | 0.00 | 0.00 | 0.00 | 33 | 1013.1 |
| 20260506200136 | 61 | 194 | 3.0 | 3.0 | 0.00 | 0.00 | 0.00 | 34 | 1013.1 |
| 20260506195637 | 60 | 259 | 1.0 | 4.0 | 0.00 | 0.00 | 0.00 | 34 | 1013.2 |
| 20260506195136 | 60 | 272 | 6.0 | 5.0 | 0.00 | 0.00 | 0.00 | 35 | 1013.2 |
| 20260506194636 | 60 | 143 | 5.0 | 5.0 | 0.00 | 0.00 | 0.00 | 35 | 1013.3 |
| 20260506194136 | 60 | 202 | 8.0 | 4.0 | 0.00 | 0.00 | 0.00 | 34 | 1013.3 |
| 20260506193636 | 59 | 246 | 3.0 | 4.0 | 0.00 | 0.00 | 0.00 | 35 | 1013.3 |
| 20260506193136 | 59 | 314 | 3.0 | 5.0 | 0.00 | 0.00 | 0.00 | 35 | 1013.3 |
| 20260506192637 | 59 | 213 | 8.0 | 5.0 | 0.00 | 0.00 | 0.00 | 35 | 1013.4 |
| 20260506192137 | 59 | 221 | 9.0 | 4.0 | 0.00 | 0.00 | 0.00 | 35 | 1013.4 |
| 20260506191637 | 59 | 230 | 2.0 | 4.0 | 0.00 | 0.00 | 0.00 | 34 | 1013.3 |
| 20260506191137 | 59 | 233 | 4.0 | 4.0 | 0.00 | 0.00 | 0.00 | 36 | 1013.3 |
| 20260506190637 | 59 | 229 | 7.0 | 3.0 | 0.00 | 0.00 | 0.00 | 34 | 1013.4 |
| 20260506190137 | 59 | 238 | 4.0 | 2.0 | 0.00 | 0.00 | 0.00 | 36 | 1013.4 |
| 20260506185637 | 58 | 328 | 1.0 | 4.0 | 0.00 | 0.00 | 0.00 | 37 | 1013.4 |
| 20260506185137 | 58 | 285 | 1.0 | 4.0 | 0.00 | 0.00 | 0.00 | 36 | 1013.4 |
| 20260506184637 | 58 | 299 | 3.0 | 3.0 | 0.00 | 0.00 | 0.00 | 37 | 1013.4 |
| 20260506184137 | 58 | 223 | 1.0 | 4.0 | 0.00 | 0.00 | 0.00 | 36 | 1013.3 |
| 20260506183637 | 58 | 324 | 3.0 | 3.0 | 0.00 | 0.00 | 0.00 | 36 | 1013.4 |
| 20260506183137 | 59 | 279 | 2.0 | 4.0 | 0.00 | 0.00 | 0.00 | 35 | 1013.4 |
| 20260506182637 | 59 | 218 | 2.0 | 4.0 | 0.00 | 0.00 | 0.00 | 34 | 1013.3 |
| 20260506182137 | 59 | 237 | 3.0 | 4.0 | 0.00 | 0.00 | 0.00 | 34 | 1013.4 |
| 20260506181636 | 60 | 238 | 3.0 | 4.0 | 0.00 | 0.00 | 0.00 | 34 | 1013.3 |
| 20260506181137 | 60 | 298 | 4.0 | 5.0 | 0.00 | 0.00 | 0.00 | 34 | 1013.4 |
| 20260506180637 | 60 | 233 | 2.0 | 5.0 | 0.00 | 0.00 | 0.00 | 33 | 1013.3 |
| 20260506180137 | 60 | 252 | 7.0 | 4.0 | 0.00 | 0.00 | 0.00 | 33 | 1013.4 |
| 20260506175638 | 61 | 211 | 4.0 | 4.0 | 0.00 | 0.00 | 0.00 | 33 | 1013.4 |
| 20260506175137 | 61 | 335 | 4.0 | 5.0 | 0.00 | 0.00 | 0.00 | 32 | 1013.5 |
| 20260506174637 | 62 | 302 | 8.0 | 4.0 | 0.00 | 0.00 | 0.00 | 32 | 1013.5 |
| 20260506174137 | 62 | 311 | 9.0 | 4.0 | 0.00 | 0.00 | 0.00 | 33 | 1013.6 |
| 20260506173636 | 61 | 247 | 2.0 | 4.0 | 0.00 | 0.00 | 0.00 | 33 | 1013.6 |
| 20260506173137 | 61 | 229 | 8.0 | 4.0 | 0.00 | 0.00 | 0.00 | 32 | 1013.6 |
| 20260506172638 | 62 | 283 | 4.0 | 4.0 | 0.00 | 0.00 | 0.00 | 32 | 1013.5 |
| 20260506172137 | 62 | 260 | 2.0 | 4.0 | 0.00 | 0.00 | 0.00 | 32 | 1013.5 |
| 20260506171637 | 62 | 188 | 10.0 | 4.0 | 0.00 | 0.00 | 0.00 | 31 | 1013.6 |
| 20260506171137 | 63 | 262 | 3.0 | 4.0 | 0.00 | 0.00 | 0.00 | 31 | 1013.7 |
| 20260506170637 | 63 | 259 | 10.0 | 4.0 | 0.00 | 0.00 | 0.00 | 32 | 1013.7 |
| 20260506170137 | 63 | 214 | 3.0 | 5.0 | 0.00 | 0.00 | 0.00 | 31 | 1013.7 |
| 20260506165637 | 63 | 235 | 5.0 | 4.0 | 0.00 | 0.00 | 0.00 | 32 | 1013.6 |
| 20260506165137 | 61 | 300 | 5.0 | 4.0 | 0.00 | 0.00 | 0.00 | 32 | 1013.5 |
| 20260506164637 | 61 | 282 | 3.0 | 4.0 | 0.00 | 0.00 | 0.00 | 33 | 1013.6 |
| 20260506164137 | 61 | 264 | 5.0 | 4.0 | 0.00 | 0.00 | 0.00 | 32 | 1013.6 |
| 20260506163636 | 60 | 252 | 3.0 | 3.0 | 0.00 | 0.00 | 0.00 | 34 | 1013.5 |
| 20260506163137 | 59 | 214 | 6.0 | 4.0 | 0.00 | 0.00 | 0.00 | 34 | 1013.5 |
| 20260506162637 | 59 | 235 | 3.0 | 4.0 | 0.00 | 0.00 | 0.00 | 34 | 1013.6 |
| 20260506162137 | 59 | 1 | 2.0 | 3.0 | 0.00 | 0.00 | 0.00 | 35 | 1013.6 |
| 20260506161637 | 58 | 329 | 3.0 | 4.0 | 0.00 | 0.00 | 0.00 | 34 | 1013.6 |
| 20260506161137 | 58 | 307 | 2.0 | 5.0 | 0.00 | 0.00 | 0.00 | 34 | 1013.6 |
| 20260506160637 | 58 | 306 | 3.0 | 5.0 | 0.00 | 0.00 | 0.00 | 33 | 1013.5 |
| 20260506160138 | 59 | 259 | 4.0 | 4.0 | 0.00 | 0.00 | 0.00 | 33 | 1013.5 |
| 20260506155637 | 58 | 254 | 5.0 | 4.0 | 0.00 | 0.00 | 0.00 | 33 | 1013.6 |
| 20260506155137 | 57 | 278 | 5.0 | 3.0 | 0.00 | 0.00 | 0.00 | 34 | 1013.6 |
| 20260506154637 | 57 | 295 | 6.0 | 3.0 | 0.00 | 0.00 | 0.00 | 35 | 1013.6 |
| 20260506154137 | 57 | 0 | 0.0 | 3.0 | 0.00 | 0.00 | 0.00 | 35 | 1013.6 |